sensor_id;sensor_type;location;lat;lon;timestamp;P1;durP1;ratioP1;P2;durP2;ratioP2
4835;SDS011;66719;51.226;6.902;2023-02-28T00:00:31;13.07;;;3.67;;
4835;SDS011;66719;51.226;6.902;2023-02-28T00:02:57;14.50;;;4.13;;
4835;SDS011;66719;51.226;6.902;2023-02-28T00:05:25;10.97;;;3.70;;
4835;SDS011;66719;51.226;6.902;2023-02-28T00:07:53;12.90;;;3.67;;
4835;SDS011;66719;51.226;6.902;2023-02-28T00:10:21;13.33;;;3.57;;
4835;SDS011;66719;51.226;6.902;2023-02-28T00:12:50;13.53;;;4.17;;
4835;SDS011;66719;51.226;6.902;2023-02-28T00:15:17;10.23;;;3.50;;
4835;SDS011;66719;51.226;6.902;2023-02-28T00:17:44;11.43;;;3.77;;
4835;SDS011;66719;51.226;6.902;2023-02-28T00:20:11;15.40;;;4.33;;
4835;SDS011;66719;51.226;6.902;2023-02-28T00:22:40;15.53;;;3.70;;
4835;SDS011;66719;51.226;6.902;2023-02-28T00:25:08;15.23;;;4.03;;
4835;SDS011;66719;51.226;6.902;2023-02-28T00:27:36;12.90;;;4.20;;
4835;SDS011;66719;51.226;6.902;2023-02-28T00:30:04;13.80;;;4.10;;
4835;SDS011;66719;51.226;6.902;2023-02-28T00:32:32;11.87;;;3.67;;
4835;SDS011;66719;51.226;6.902;2023-02-28T00:35:00;17.23;;;4.60;;
4835;SDS011;66719;51.226;6.902;2023-02-28T00:37:28;13.10;;;4.33;;
4835;SDS011;66719;51.226;6.902;2023-02-28T00:39:54;18.80;;;4.10;;
4835;SDS011;66719;51.226;6.902;2023-02-28T00:42:21;12.97;;;4.17;;
4835;SDS011;66719;51.226;6.902;2023-02-28T00:44:47;11.60;;;3.87;;
4835;SDS011;66719;51.226;6.902;2023-02-28T00:47:14;14.30;;;4.47;;
4835;SDS011;66719;51.226;6.902;2023-02-28T00:49:41;15.00;;;4.50;;
4835;SDS011;66719;51.226;6.902;2023-02-28T00:52:07;13.60;;;3.97;;
4835;SDS011;66719;51.226;6.902;2023-02-28T00:54:34;14.23;;;3.90;;
4835;SDS011;66719;51.226;6.902;2023-02-28T00:57:00;11.90;;;3.80;;
4835;SDS011;66719;51.226;6.902;2023-02-28T00:59:27;16.20;;;4.53;;
4835;SDS011;66719;51.226;6.902;2023-02-28T01:01:53;13.20;;;3.73;;
4835;SDS011;66719;51.226;6.902;2023-02-28T01:04:20;15.90;;;4.30;;
4835;SDS011;66719;51.226;6.902;2023-02-28T01:06:46;14.37;;;4.20;;
4835;SDS011;66719;51.226;6.902;2023-02-28T01:09:13;10.83;;;3.60;;
4835;SDS011;66719;51.226;6.902;2023-02-28T01:11:40;15.20;;;4.10;;
4835;SDS011;66719;51.226;6.902;2023-02-28T01:14:08;12.40;;;3.70;;
4835;SDS011;66719;51.226;6.902;2023-02-28T01:16:34;13.83;;;4.33;;
4835;SDS011;66719;51.226;6.902;2023-02-28T01:19:01;12.57;;;4.43;;
4835;SDS011;66719;51.226;6.902;2023-02-28T01:21:27;12.97;;;4.23;;
4835;SDS011;66719;51.226;6.902;2023-02-28T01:23:56;12.77;;;3.73;;
4835;SDS011;66719;51.226;6.902;2023-02-28T01:26:24;14.53;;;3.93;;
4835;SDS011;66719;51.226;6.902;2023-02-28T01:28:51;13.47;;;4.60;;
4835;SDS011;66719;51.226;6.902;2023-02-28T01:31:19;13.47;;;3.90;;
4835;SDS011;66719;51.226;6.902;2023-02-28T01:33:47;12.07;;;3.90;;
4835;SDS011;66719;51.226;6.902;2023-02-28T01:36:14;11.90;;;4.00;;
4835;SDS011;66719;51.226;6.902;2023-02-28T01:38:43;14.17;;;4.60;;
4835;SDS011;66719;51.226;6.902;2023-02-28T01:46:12;13.93;;;4.60;;
4835;SDS011;66719;51.226;6.902;2023-02-28T01:48:44;12.93;;;3.93;;
4835;SDS011;66719;51.226;6.902;2023-02-28T01:51:15;14.10;;;4.73;;
4835;SDS011;66719;51.226;6.902;2023-02-28T01:53:49;14.10;;;4.53;;
4835;SDS011;66719;51.226;6.902;2023-02-28T01:56:21;13.30;;;3.97;;
4835;SDS011;66719;51.226;6.902;2023-02-28T01:58:53;11.37;;;4.13;;
4835;SDS011;66719;51.226;6.902;2023-02-28T02:01:21;15.53;;;5.10;;
4835;SDS011;66719;51.226;6.902;2023-02-28T02:03:51;13.33;;;3.80;;
4835;SDS011;66719;51.226;6.902;2023-02-28T02:06:27;14.03;;;4.73;;
4835;SDS011;66719;51.226;6.902;2023-02-28T02:08:57;14.67;;;4.70;;
4835;SDS011;66719;51.226;6.902;2023-02-28T02:11:23;12.80;;;4.80;;
4835;SDS011;66719;51.226;6.902;2023-02-28T02:17:19;17.87;;;5.07;;
4835;SDS011;66719;51.226;6.902;2023-02-28T02:20:02;11.90;;;4.23;;
4835;SDS011;66719;51.226;6.902;2023-02-28T02:25:28;11.80;;;3.40;;
4835;SDS011;66719;51.226;6.902;2023-02-28T02:39:31;11.70;;;4.00;;
4835;SDS011;66719;51.226;6.902;2023-02-28T02:42:09;12.03;;;4.60;;
4835;SDS011;66719;51.226;6.902;2023-02-28T02:44:49;13.63;;;3.80;;
4835;SDS011;66719;51.226;6.902;2023-02-28T02:47:23;16.00;;;4.10;;
4835;SDS011;66719;51.226;6.902;2023-02-28T02:49:58;11.80;;;4.53;;
4835;SDS011;66719;51.226;6.902;2023-02-28T02:52:32;11.90;;;4.13;;
4835;SDS011;66719;51.226;6.902;2023-02-28T02:55:05;17.03;;;5.30;;
4835;SDS011;66719;51.226;6.902;2023-02-28T02:57:38;11.87;;;3.87;;
4835;SDS011;66719;51.226;6.902;2023-02-28T03:00:12;13.10;;;4.30;;
4835;SDS011;66719;51.226;6.902;2023-02-28T03:02:41;15.97;;;4.70;;
4835;SDS011;66719;51.226;6.902;2023-02-28T03:05:30;15.60;;;4.43;;
4835;SDS011;66719;51.226;6.902;2023-02-28T03:08:03;13.10;;;4.43;;
4835;SDS011;66719;51.226;6.902;2023-02-28T03:10:36;12.13;;;4.27;;
4835;SDS011;66719;51.226;6.902;2023-02-28T03:13:09;13.20;;;4.50;;
4835;SDS011;66719;51.226;6.902;2023-02-28T03:18:52;13.57;;;3.93;;
4835;SDS011;66719;51.226;6.902;2023-02-28T03:27:35;12.40;;;4.30;;
4835;SDS011;66719;51.226;6.902;2023-02-28T03:30:13;14.30;;;4.67;;
4835;SDS011;66719;51.226;6.902;2023-02-28T03:35:59;13.93;;;4.97;;
4835;SDS011;66719;51.226;6.902;2023-02-28T03:38:33;11.30;;;4.20;;
4835;SDS011;66719;51.226;6.902;2023-02-28T03:41:18;13.40;;;4.77;;
4835;SDS011;66719;51.226;6.902;2023-02-28T03:44:22;14.97;;;3.80;;
4835;SDS011;66719;51.226;6.902;2023-02-28T03:46:44;15.87;;;4.60;;
4835;SDS011;66719;51.226;6.902;2023-02-28T03:49:37;14.10;;;4.13;;
4835;SDS011;66719;51.226;6.902;2023-02-28T03:52:20;14.30;;;4.50;;
4835;SDS011;66719;51.226;6.902;2023-02-28T03:54:52;11.33;;;4.10;;
4835;SDS011;66719;51.226;6.902;2023-02-28T03:57:25;12.83;;;4.07;;
4835;SDS011;66719;51.226;6.902;2023-02-28T04:00:08;11.13;;;3.83;;
4835;SDS011;66719;51.226;6.902;2023-02-28T04:02:47;13.67;;;4.27;;
4835;SDS011;66719;51.226;6.902;2023-02-28T04:05:21;14.00;;;3.93;;
4835;SDS011;66719;51.226;6.902;2023-02-28T04:07:48;14.50;;;3.80;;
4835;SDS011;66719;51.226;6.902;2023-02-28T04:10:15;11.53;;;4.10;;
4835;SDS011;66719;51.226;6.902;2023-02-28T04:12:43;11.77;;;4.00;;
4835;SDS011;66719;51.226;6.902;2023-02-28T04:15:09;10.93;;;3.37;;
4835;SDS011;66719;51.226;6.902;2023-02-28T04:17:37;16.27;;;4.47;;
4835;SDS011;66719;51.226;6.902;2023-02-28T04:20:08;13.03;;;4.23;;
4835;SDS011;66719;51.226;6.902;2023-02-28T04:22:36;12.60;;;4.30;;
4835;SDS011;66719;51.226;6.902;2023-02-28T04:25:03;12.23;;;3.60;;
4835;SDS011;66719;51.226;6.902;2023-02-28T04:27:31;13.00;;;4.30;;
4835;SDS011;66719;51.226;6.902;2023-02-28T04:29:58;13.30;;;3.70;;
4835;SDS011;66719;51.226;6.902;2023-02-28T04:32:24;12.77;;;3.40;;
4835;SDS011;66719;51.226;6.902;2023-02-28T04:34:51;13.30;;;4.10;;
4835;SDS011;66719;51.226;6.902;2023-02-28T04:37:18;14.50;;;4.33;;
4835;SDS011;66719;51.226;6.902;2023-02-28T04:39:44;11.50;;;3.80;;
4835;SDS011;66719;51.226;6.902;2023-02-28T04:42:11;16.60;;;3.70;;
4835;SDS011;66719;51.226;6.902;2023-02-28T04:44:38;12.17;;;3.93;;
4835;SDS011;66719;51.226;6.902;2023-02-28T04:47:04;11.43;;;4.00;;
4835;SDS011;66719;51.226;6.902;2023-02-28T04:49:31;12.30;;;4.20;;
4835;SDS011;66719;51.226;6.902;2023-02-28T04:51:58;15.43;;;3.53;;
4835;SDS011;66719;51.226;6.902;2023-02-28T04:54:25;10.67;;;3.80;;
4835;SDS011;66719;51.226;6.902;2023-02-28T04:56:52;12.23;;;3.60;;
4835;SDS011;66719;51.226;6.902;2023-02-28T04:59:18;11.33;;;3.50;;
4835;SDS011;66719;51.226;6.902;2023-02-28T05:01:45;10.90;;;3.60;;
4835;SDS011;66719;51.226;6.902;2023-02-28T05:04:13;11.73;;;3.83;;
4835;SDS011;66719;51.226;6.902;2023-02-28T05:06:39;14.87;;;3.77;;
4835;SDS011;66719;51.226;6.902;2023-02-28T05:09:06;11.10;;;3.83;;
4835;SDS011;66719;51.226;6.902;2023-02-28T05:11:33;15.40;;;4.13;;
4835;SDS011;66719;51.226;6.902;2023-02-28T05:14:01;11.47;;;3.60;;
4835;SDS011;66719;51.226;6.902;2023-02-28T05:16:29;10.27;;;3.37;;
4835;SDS011;66719;51.226;6.902;2023-02-28T05:18:57;11.30;;;3.60;;
4835;SDS011;66719;51.226;6.902;2023-02-28T05:21:25;17.83;;;4.20;;
4835;SDS011;66719;51.226;6.902;2023-02-28T05:23:58;12.07;;;3.43;;
4835;SDS011;66719;51.226;6.902;2023-02-28T05:26:26;16.80;;;4.10;;
4835;SDS011;66719;51.226;6.902;2023-02-28T05:28:54;15.70;;;3.60;;
4835;SDS011;66719;51.226;6.902;2023-02-28T05:31:21;12.57;;;4.23;;
4835;SDS011;66719;51.226;6.902;2023-02-28T05:33:48;11.13;;;3.50;;
4835;SDS011;66719;51.226;6.902;2023-02-28T05:36:14;11.60;;;4.13;;
4835;SDS011;66719;51.226;6.902;2023-02-28T05:38:41;10.70;;;3.30;;
4835;SDS011;66719;51.226;6.902;2023-02-28T05:41:08;14.00;;;4.80;;
4835;SDS011;66719;51.226;6.902;2023-02-28T05:43:36;12.10;;;5.13;;
4835;SDS011;66719;51.226;6.902;2023-02-28T05:46:04;14.33;;;4.93;;
4835;SDS011;66719;51.226;6.902;2023-02-28T05:48:35;15.87;;;4.20;;
4835;SDS011;66719;51.226;6.902;2023-02-28T05:51:04;14.87;;;4.00;;
4835;SDS011;66719;51.226;6.902;2023-02-28T05:53:32;11.77;;;4.17;;
4835;SDS011;66719;51.226;6.902;2023-02-28T05:55:59;11.53;;;3.63;;
4835;SDS011;66719;51.226;6.902;2023-02-28T05:58:26;14.93;;;4.50;;
4835;SDS011;66719;51.226;6.902;2023-02-28T06:01:00;13.50;;;4.00;;
4835;SDS011;66719;51.226;6.902;2023-02-28T06:03:27;12.73;;;4.30;;
4835;SDS011;66719;51.226;6.902;2023-02-28T06:05:54;19.53;;;4.07;;
4835;SDS011;66719;51.226;6.902;2023-02-28T06:08:20;13.00;;;4.00;;
4835;SDS011;66719;51.226;6.902;2023-02-28T06:10:47;11.63;;;3.40;;
4835;SDS011;66719;51.226;6.902;2023-02-28T06:13:13;11.43;;;3.67;;
4835;SDS011;66719;51.226;6.902;2023-02-28T06:15:40;14.30;;;3.87;;
4835;SDS011;66719;51.226;6.902;2023-02-28T06:18:06;11.60;;;3.67;;
4835;SDS011;66719;51.226;6.902;2023-02-28T06:20:33;10.70;;;3.50;;
4835;SDS011;66719;51.226;6.902;2023-02-28T06:23:00;13.37;;;4.20;;
4835;SDS011;66719;51.226;6.902;2023-02-28T06:25:27;11.90;;;3.97;;
4835;SDS011;66719;51.226;6.902;2023-02-28T06:27:54;12.20;;;3.73;;
4835;SDS011;66719;51.226;6.902;2023-02-28T06:30:21;12.03;;;4.27;;
4835;SDS011;66719;51.226;6.902;2023-02-28T06:32:53;12.10;;;3.57;;
4835;SDS011;66719;51.226;6.902;2023-02-28T06:35:20;11.20;;;3.90;;
4835;SDS011;66719;51.226;6.902;2023-02-28T06:37:47;13.83;;;3.63;;
4835;SDS011;66719;51.226;6.902;2023-02-28T06:40:14;11.30;;;4.37;;
4835;SDS011;66719;51.226;6.902;2023-02-28T06:42:41;18.97;;;5.27;;
4835;SDS011;66719;51.226;6.902;2023-02-28T06:45:07;19.27;;;4.53;;
4835;SDS011;66719;51.226;6.902;2023-02-28T06:47:36;23.57;;;6.07;;
4835;SDS011;66719;51.226;6.902;2023-02-28T06:50:04;33.77;;;8.00;;
4835;SDS011;66719;51.226;6.902;2023-02-28T06:52:32;31.27;;;7.73;;
4835;SDS011;66719;51.226;6.902;2023-02-28T06:54:58;30.40;;;7.70;;
4835;SDS011;66719;51.226;6.902;2023-02-28T06:57:29;12.90;;;4.20;;
4835;SDS011;66719;51.226;6.902;2023-02-28T06:59:59;18.90;;;5.27;;
4835;SDS011;66719;51.226;6.902;2023-02-28T07:02:27;13.27;;;3.87;;
4835;SDS011;66719;51.226;6.902;2023-02-28T07:04:54;12.17;;;4.10;;
4835;SDS011;66719;51.226;6.902;2023-02-28T07:07:21;14.63;;;4.53;;
4835;SDS011;66719;51.226;6.902;2023-02-28T07:09:47;13.13;;;4.10;;
4835;SDS011;66719;51.226;6.902;2023-02-28T07:12:14;10.43;;;3.70;;
4835;SDS011;66719;51.226;6.902;2023-02-28T07:14:40;11.90;;;3.60;;
4835;SDS011;66719;51.226;6.902;2023-02-28T07:17:10;15.10;;;4.50;;
4835;SDS011;66719;51.226;6.902;2023-02-28T07:19:38;13.50;;;5.20;;
4835;SDS011;66719;51.226;6.902;2023-02-28T07:22:06;16.47;;;5.63;;
4835;SDS011;66719;51.226;6.902;2023-02-28T07:24:33;24.27;;;6.43;;
4835;SDS011;66719;51.226;6.902;2023-02-28T07:26:59;22.23;;;6.60;;
4835;SDS011;66719;51.226;6.902;2023-02-28T07:29:26;20.90;;;5.10;;
4835;SDS011;66719;51.226;6.902;2023-02-28T07:31:53;19.37;;;5.70;;
4835;SDS011;66719;51.226;6.902;2023-02-28T07:34:20;24.70;;;5.47;;
4835;SDS011;66719;51.226;6.902;2023-02-28T07:36:47;12.83;;;3.80;;
4835;SDS011;66719;51.226;6.902;2023-02-28T07:39:13;11.57;;;4.00;;
4835;SDS011;66719;51.226;6.902;2023-02-28T07:41:40;12.00;;;3.80;;
4835;SDS011;66719;51.226;6.902;2023-02-28T07:44:10;13.40;;;3.77;;
4835;SDS011;66719;51.226;6.902;2023-02-28T07:46:37;11.40;;;3.80;;
4835;SDS011;66719;51.226;6.902;2023-02-28T07:49:04;12.30;;;4.17;;
4835;SDS011;66719;51.226;6.902;2023-02-28T07:51:31;9.90;;;3.30;;
4835;SDS011;66719;51.226;6.902;2023-02-28T07:53:58;13.57;;;4.17;;
4835;SDS011;66719;51.226;6.902;2023-02-28T07:56:25;15.70;;;3.90;;
4835;SDS011;66719;51.226;6.902;2023-02-28T07:58:52;12.37;;;4.27;;
4835;SDS011;66719;51.226;6.902;2023-02-28T08:01:18;16.30;;;5.13;;
4835;SDS011;66719;51.226;6.902;2023-02-28T08:03:45;13.30;;;4.40;;
4835;SDS011;66719;51.226;6.902;2023-02-28T08:06:17;13.60;;;4.47;;
4835;SDS011;66719;51.226;6.902;2023-02-28T08:08:46;16.53;;;4.47;;
4835;SDS011;66719;51.226;6.902;2023-02-28T08:11:13;18.43;;;5.27;;
4835;SDS011;66719;51.226;6.902;2023-02-28T08:13:41;16.53;;;4.67;;
4835;SDS011;66719;51.226;6.902;2023-02-28T08:16:08;15.17;;;4.73;;
4835;SDS011;66719;51.226;6.902;2023-02-28T08:18:35;12.70;;;4.17;;
4835;SDS011;66719;51.226;6.902;2023-02-28T08:21:08;14.90;;;4.20;;
4835;SDS011;66719;51.226;6.902;2023-02-28T08:23:35;14.50;;;4.07;;
4835;SDS011;66719;51.226;6.902;2023-02-28T08:26:02;15.17;;;4.30;;
4835;SDS011;66719;51.226;6.902;2023-02-28T08:28:30;12.40;;;3.77;;
4835;SDS011;66719;51.226;6.902;2023-02-28T08:30:57;18.60;;;3.43;;
4835;SDS011;66719;51.226;6.902;2023-02-28T08:33:24;14.73;;;3.30;;
4835;SDS011;66719;51.226;6.902;2023-02-28T08:35:54;11.47;;;3.20;;
4835;SDS011;66719;51.226;6.902;2023-02-28T08:38:22;11.27;;;3.00;;
4835;SDS011;66719;51.226;6.902;2023-02-28T08:40:49;11.13;;;3.33;;
4835;SDS011;66719;51.226;6.902;2023-02-28T08:43:22;26.80;;;6.43;;
4835;SDS011;66719;51.226;6.902;2023-02-28T08:45:51;21.47;;;4.90;;
4835;SDS011;66719;51.226;6.902;2023-02-28T08:48:18;21.83;;;3.90;;
4835;SDS011;66719;51.226;6.902;2023-02-28T08:50:54;11.70;;;2.73;;
4835;SDS011;66719;51.226;6.902;2023-02-28T08:53:33;12.70;;;3.50;;
4835;SDS011;66719;51.226;6.902;2023-02-28T08:56:00;15.13;;;3.37;;
4835;SDS011;66719;51.226;6.902;2023-02-28T08:58:28;13.10;;;3.33;;
4835;SDS011;66719;51.226;6.902;2023-02-28T09:00:55;10.10;;;2.70;;
4835;SDS011;66719;51.226;6.902;2023-02-28T09:03:22;13.23;;;3.53;;
4835;SDS011;66719;51.226;6.902;2023-02-28T09:05:58;10.80;;;2.40;;
4835;SDS011;66719;51.226;6.902;2023-02-28T09:08:27;11.50;;;2.77;;
4835;SDS011;66719;51.226;6.902;2023-02-28T09:10:56;11.17;;;2.77;;
4835;SDS011;66719;51.226;6.902;2023-02-28T09:13:26;10.40;;;2.87;;
4835;SDS011;66719;51.226;6.902;2023-02-28T09:15:53;10.07;;;2.40;;
4835;SDS011;66719;51.226;6.902;2023-02-28T09:18:20;9.93;;;2.30;;
4835;SDS011;66719;51.226;6.902;2023-02-28T09:20:46;9.10;;;2.57;;
4835;SDS011;66719;51.226;6.902;2023-02-28T09:23:13;9.80;;;2.50;;
4835;SDS011;66719;51.226;6.902;2023-02-28T09:25:46;9.13;;;2.33;;
4835;SDS011;66719;51.226;6.902;2023-02-28T09:28:14;8.83;;;2.23;;
4835;SDS011;66719;51.226;6.902;2023-02-28T09:30:44;11.20;;;2.57;;
4835;SDS011;66719;51.226;6.902;2023-02-28T09:33:12;8.30;;;2.17;;
4835;SDS011;66719;51.226;6.902;2023-02-28T09:35:40;10.53;;;2.37;;
4835;SDS011;66719;51.226;6.902;2023-02-28T09:38:07;10.37;;;2.33;;
4835;SDS011;66719;51.226;6.902;2023-02-28T09:40:35;9.33;;;2.40;;
4835;SDS011;66719;51.226;6.902;2023-02-28T09:43:04;8.97;;;2.53;;
4835;SDS011;66719;51.226;6.902;2023-02-28T09:45:36;8.43;;;2.37;;
4835;SDS011;66719;51.226;6.902;2023-02-28T09:48:09;12.30;;;2.70;;
4835;SDS011;66719;51.226;6.902;2023-02-28T09:50:43;8.67;;;2.30;;
4835;SDS011;66719;51.226;6.902;2023-02-28T09:53:31;10.37;;;2.53;;
4835;SDS011;66719;51.226;6.902;2023-02-28T09:58:49;8.97;;;2.20;;
4835;SDS011;66719;51.226;6.902;2023-02-28T10:07:10;13.90;;;2.50;;
4835;SDS011;66719;51.226;6.902;2023-02-28T10:09:46;11.93;;;3.20;;
4835;SDS011;66719;51.226;6.902;2023-02-28T10:12:18;11.50;;;2.53;;
4835;SDS011;66719;51.226;6.902;2023-02-28T10:14:46;16.13;;;3.37;;
4835;SDS011;66719;51.226;6.902;2023-02-28T10:17:19;16.80;;;3.70;;
4835;SDS011;66719;51.226;6.902;2023-02-28T10:19:58;13.87;;;3.60;;
4835;SDS011;66719;51.226;6.902;2023-02-28T10:22:39;9.50;;;2.47;;
4835;SDS011;66719;51.226;6.902;2023-02-28T10:25:23;9.73;;;2.70;;
4835;SDS011;66719;51.226;6.902;2023-02-28T10:27:57;9.23;;;2.10;;
4835;SDS011;66719;51.226;6.902;2023-02-28T10:30:50;8.87;;;2.00;;
4835;SDS011;66719;51.226;6.902;2023-02-28T10:33:28;9.33;;;1.80;;
4835;SDS011;66719;51.226;6.902;2023-02-28T10:35:57;9.47;;;2.40;;
4835;SDS011;66719;51.226;6.902;2023-02-28T10:38:25;11.00;;;2.43;;
4835;SDS011;66719;51.226;6.902;2023-02-28T10:41:11;8.43;;;2.33;;
4835;SDS011;66719;51.226;6.902;2023-02-28T10:43:41;14.87;;;2.17;;
4835;SDS011;66719;51.226;6.902;2023-02-28T10:46:12;8.83;;;2.20;;
4835;SDS011;66719;51.226;6.902;2023-02-28T10:49:05;10.13;;;2.03;;
4835;SDS011;66719;51.226;6.902;2023-02-28T10:51:39;10.40;;;2.03;;
4835;SDS011;66719;51.226;6.902;2023-02-28T10:54:18;8.23;;;2.00;;
4835;SDS011;66719;51.226;6.902;2023-02-28T10:59:44;8.70;;;2.00;;
4835;SDS011;66719;51.226;6.902;2023-02-28T11:02:31;10.10;;;2.20;;
4835;SDS011;66719;51.226;6.902;2023-02-28T11:04:59;9.30;;;2.40;;
4835;SDS011;66719;51.226;6.902;2023-02-28T11:07:26;10.97;;;2.53;;
4835;SDS011;66719;51.226;6.902;2023-02-28T11:10:06;9.70;;;2.30;;
4835;SDS011;66719;51.226;6.902;2023-02-28T11:12:45;8.80;;;2.40;;
4835;SDS011;66719;51.226;6.902;2023-02-28T11:15:26;12.03;;;2.30;;
4835;SDS011;66719;51.226;6.902;2023-02-28T11:18:17;8.07;;;2.03;;
4835;SDS011;66719;51.226;6.902;2023-02-28T11:21:06;9.50;;;2.10;;
4835;SDS011;66719;51.226;6.902;2023-02-28T11:23:34;8.07;;;1.90;;
4835;SDS011;66719;51.226;6.902;2023-02-28T11:26:04;8.57;;;2.07;;
4835;SDS011;66719;51.226;6.902;2023-02-28T11:28:35;8.90;;;2.17;;
4835;SDS011;66719;51.226;6.902;2023-02-28T11:33:41;8.20;;;2.30;;
4835;SDS011;66719;51.226;6.902;2023-02-28T11:36:27;11.13;;;2.30;;
4835;SDS011;66719;51.226;6.902;2023-02-28T11:38:56;10.80;;;2.20;;
4835;SDS011;66719;51.226;6.902;2023-02-28T11:41:35;8.30;;;2.10;;
4835;SDS011;66719;51.226;6.902;2023-02-28T11:47:09;10.67;;;2.43;;
4835;SDS011;66719;51.226;6.902;2023-02-28T12:06:10;11.60;;;2.40;;
4835;SDS011;66719;51.226;6.902;2023-02-28T12:14:03;10.10;;;2.60;;
4835;SDS011;66719;51.226;6.902;2023-02-28T12:16:44;12.57;;;3.00;;
4835;SDS011;66719;51.226;6.902;2023-02-28T12:19:21;9.63;;;2.50;;
4835;SDS011;66719;51.226;6.902;2023-02-28T12:22:12;10.43;;;2.20;;
4835;SDS011;66719;51.226;6.902;2023-02-28T12:25:01;10.67;;;3.10;;
4835;SDS011;66719;51.226;6.902;2023-02-28T12:27:34;8.53;;;2.23;;
4835;SDS011;66719;51.226;6.902;2023-02-28T12:30:05;16.43;;;2.90;;
4835;SDS011;66719;51.226;6.902;2023-02-28T12:32:44;8.53;;;2.40;;
4835;SDS011;66719;51.226;6.902;2023-02-28T12:35:14;15.00;;;2.60;;
4835;SDS011;66719;51.226;6.902;2023-02-28T12:40:22;8.47;;;2.40;;
4835;SDS011;66719;51.226;6.902;2023-02-28T12:42:52;9.70;;;2.37;;
4835;SDS011;66719;51.226;6.902;2023-02-28T12:45:23;9.53;;;2.40;;
4835;SDS011;66719;51.226;6.902;2023-02-28T12:47:57;8.83;;;2.27;;
4835;SDS011;66719;51.226;6.902;2023-02-28T12:50:27;10.93;;;2.30;;
4835;SDS011;66719;51.226;6.902;2023-02-28T12:53:00;12.10;;;2.73;;
4835;SDS011;66719;51.226;6.902;2023-02-28T12:58:57;13.60;;;2.10;;
4835;SDS011;66719;51.226;6.902;2023-02-28T13:01:34;10.50;;;2.40;;
4835;SDS011;66719;51.226;6.902;2023-02-28T13:09:26;9.63;;;2.70;;
4835;SDS011;66719;51.226;6.902;2023-02-28T13:11:55;9.90;;;2.23;;
4835;SDS011;66719;51.226;6.902;2023-02-28T13:19:26;11.30;;;2.10;;
4835;SDS011;66719;51.226;6.902;2023-02-28T13:21:55;12.20;;;2.27;;
4835;SDS011;66719;51.226;6.902;2023-02-28T13:29:41;11.90;;;2.23;;
4835;SDS011;66719;51.226;6.902;2023-02-28T13:34:38;15.63;;;2.33;;
4835;SDS011;66719;51.226;6.902;2023-02-28T13:39:47;11.37;;;2.43;;
4835;SDS011;66719;51.226;6.902;2023-02-28T13:47:28;10.47;;;2.10;;
4835;SDS011;66719;51.226;6.902;2023-02-28T14:11:39;10.50;;;2.27;;
4835;SDS011;66719;51.226;6.902;2023-02-28T14:14:08;9.67;;;2.60;;
4835;SDS011;66719;51.226;6.902;2023-02-28T14:16:55;10.13;;;3.00;;
4835;SDS011;66719;51.226;6.902;2023-02-28T14:19:26;9.80;;;2.80;;
4835;SDS011;66719;51.226;6.902;2023-02-28T14:29:56;10.77;;;2.60;;
4835;SDS011;66719;51.226;6.902;2023-02-28T14:37:52;10.17;;;2.63;;
4835;SDS011;66719;51.226;6.902;2023-02-28T14:40:30;11.67;;;3.00;;
4835;SDS011;66719;51.226;6.902;2023-02-28T14:43:00;11.77;;;3.03;;
4835;SDS011;66719;51.226;6.902;2023-02-28T14:45:37;11.33;;;2.90;;
4835;SDS011;66719;51.226;6.902;2023-02-28T14:48:04;8.90;;;2.43;;
4835;SDS011;66719;51.226;6.902;2023-02-28T14:50:35;8.93;;;2.60;;
4835;SDS011;66719;51.226;6.902;2023-02-28T14:53:03;10.03;;;3.00;;
4835;SDS011;66719;51.226;6.902;2023-02-28T14:55:34;9.03;;;2.53;;
4835;SDS011;66719;51.226;6.902;2023-02-28T14:58:05;9.53;;;2.63;;
4835;SDS011;66719;51.226;6.902;2023-02-28T15:00:34;9.80;;;2.70;;
4835;SDS011;66719;51.226;6.902;2023-02-28T15:03:23;8.33;;;2.33;;
4835;SDS011;66719;51.226;6.902;2023-02-28T15:06:04;14.10;;;3.20;;
4835;SDS011;66719;51.226;6.902;2023-02-28T15:08:39;9.40;;;3.03;;
4835;SDS011;66719;51.226;6.902;2023-02-28T15:13:41;9.40;;;3.07;;
4835;SDS011;66719;51.226;6.902;2023-02-28T15:16:19;9.80;;;2.63;;
4835;SDS011;66719;51.226;6.902;2023-02-28T15:18:55;9.60;;;2.80;;
4835;SDS011;66719;51.226;6.902;2023-02-28T15:21:34;13.50;;;2.93;;
4835;SDS011;66719;51.226;6.902;2023-02-28T15:26:58;9.53;;;3.00;;
4835;SDS011;66719;51.226;6.902;2023-02-28T15:29:29;10.40;;;3.10;;
4835;SDS011;66719;51.226;6.902;2023-02-28T15:32:02;8.60;;;2.77;;
4835;SDS011;66719;51.226;6.902;2023-02-28T15:34:38;10.23;;;2.57;;
4835;SDS011;66719;51.226;6.902;2023-02-28T15:40:05;9.77;;;2.80;;
4835;SDS011;66719;51.226;6.902;2023-02-28T15:42:31;8.60;;;2.60;;
4835;SDS011;66719;51.226;6.902;2023-02-28T15:44:58;11.13;;;3.00;;
4835;SDS011;66719;51.226;6.902;2023-02-28T15:47:26;9.47;;;3.23;;
4835;SDS011;66719;51.226;6.902;2023-02-28T15:49:59;11.43;;;3.80;;
4835;SDS011;66719;51.226;6.902;2023-02-28T15:52:29;10.87;;;2.80;;
4835;SDS011;66719;51.226;6.902;2023-02-28T15:55:11;10.20;;;2.70;;
4835;SDS011;66719;51.226;6.902;2023-02-28T15:57:55;11.60;;;3.07;;
4835;SDS011;66719;51.226;6.902;2023-02-28T16:00:30;10.57;;;3.37;;
4835;SDS011;66719;51.226;6.902;2023-02-28T16:02:58;9.40;;;2.93;;
4835;SDS011;66719;51.226;6.902;2023-02-28T16:05:26;11.53;;;3.37;;
4835;SDS011;66719;51.226;6.902;2023-02-28T16:07:57;12.17;;;3.00;;
4835;SDS011;66719;51.226;6.902;2023-02-28T16:10:26;10.30;;;3.10;;
4835;SDS011;66719;51.226;6.902;2023-02-28T16:12:55;11.63;;;3.67;;
4835;SDS011;66719;51.226;6.902;2023-02-28T16:15:27;12.53;;;3.00;;
4835;SDS011;66719;51.226;6.902;2023-02-28T16:17:55;13.43;;;3.60;;
4835;SDS011;66719;51.226;6.902;2023-02-28T16:20:24;11.10;;;3.23;;
4835;SDS011;66719;51.226;6.902;2023-02-28T16:22:52;9.93;;;3.10;;
4835;SDS011;66719;51.226;6.902;2023-02-28T16:25:20;11.47;;;3.13;;
4835;SDS011;66719;51.226;6.902;2023-02-28T16:27:52;10.20;;;3.10;;
4835;SDS011;66719;51.226;6.902;2023-02-28T16:30:22;10.67;;;3.87;;
4835;SDS011;66719;51.226;6.902;2023-02-28T16:32:51;9.57;;;3.10;;
4835;SDS011;66719;51.226;6.902;2023-02-28T16:35:18;12.80;;;3.80;;
4835;SDS011;66719;51.226;6.902;2023-02-28T16:37:45;9.80;;;3.00;;
4835;SDS011;66719;51.226;6.902;2023-02-28T16:40:16;12.00;;;3.63;;
4835;SDS011;66719;51.226;6.902;2023-02-28T16:42:44;11.10;;;3.50;;
4835;SDS011;66719;51.226;6.902;2023-02-28T16:45:21;11.20;;;3.13;;
4835;SDS011;66719;51.226;6.902;2023-02-28T16:47:50;9.80;;;3.00;;
4835;SDS011;66719;51.226;6.902;2023-02-28T16:50:19;10.87;;;3.17;;
4835;SDS011;66719;51.226;6.902;2023-02-28T16:52:50;12.33;;;3.37;;
4835;SDS011;66719;51.226;6.902;2023-02-28T16:55:21;14.50;;;3.27;;
4835;SDS011;66719;51.226;6.902;2023-02-28T16:57:51;14.33;;;3.30;;
4835;SDS011;66719;51.226;6.902;2023-02-28T17:00:20;11.93;;;3.60;;
4835;SDS011;66719;51.226;6.902;2023-02-28T17:02:47;18.23;;;3.70;;
4835;SDS011;66719;51.226;6.902;2023-02-28T17:05:14;22.13;;;4.37;;
4835;SDS011;66719;51.226;6.902;2023-02-28T17:07:42;14.80;;;4.50;;
4835;SDS011;66719;51.226;6.902;2023-02-28T17:10:16;14.80;;;4.30;;
4835;SDS011;66719;51.226;6.902;2023-02-28T17:12:47;14.63;;;3.80;;
4835;SDS011;66719;51.226;6.902;2023-02-28T17:15:15;12.53;;;3.57;;
4835;SDS011;66719;51.226;6.902;2023-02-28T17:17:43;11.23;;;3.30;;
4835;SDS011;66719;51.226;6.902;2023-02-28T17:20:15;12.07;;;3.50;;
4835;SDS011;66719;51.226;6.902;2023-02-28T17:22:43;15.03;;;3.73;;
4835;SDS011;66719;51.226;6.902;2023-02-28T17:25:10;10.33;;;3.70;;
4835;SDS011;66719;51.226;6.902;2023-02-28T17:27:37;14.10;;;3.30;;
4835;SDS011;66719;51.226;6.902;2023-02-28T17:30:09;11.27;;;3.60;;
4835;SDS011;66719;51.226;6.902;2023-02-28T17:32:41;17.90;;;3.73;;
4835;SDS011;66719;51.226;6.902;2023-02-28T17:35:08;14.00;;;3.50;;
4835;SDS011;66719;51.226;6.902;2023-02-28T17:37:35;11.10;;;3.80;;
4835;SDS011;66719;51.226;6.902;2023-02-28T17:40:02;12.33;;;3.93;;